sensor_id;sensor_type;location;lat;lon;timestamp;pressure;altitude;pressure_sealevel;temperature
40045;BMP280;25735;48.122;11.422;2023-02-15T00:01:31;96549.00;;;1.22
40045;BMP280;25735;48.122;11.422;2023-02-15T00:03:56;96540.94;;;1.29
40045;BMP280;25735;48.122;11.422;2023-02-15T00:06:22;96546.31;;;1.12
40045;BMP280;25735;48.122;11.422;2023-02-15T00:08:47;96555.47;;;1.04
40045;BMP280;25735;48.122;11.422;2023-02-15T00:11:15;96537.53;;;1.21
40045;BMP280;25735;48.122;11.422;2023-02-15T00:13:42;96543.63;;;1.08
40045;BMP280;25735;48.122;11.422;2023-02-15T00:16:12;96533.31;;;1.03
40045;BMP280;25735;48.122;11.422;2023-02-15T00:18:40;96541.72;;;1.02
40045;BMP280;25735;48.122;11.422;2023-02-15T00:21:08;96534.81;;;0.94
40045;BMP280;25735;48.122;11.422;2023-02-15T00:23:33;96539.81;;;0.99
40045;BMP280;25735;48.122;11.422;2023-02-15T00:26:10;96525.66;;;1.05
40045;BMP280;25735;48.122;11.422;2023-02-15T00:28:36;96535.56;;;0.81
40045;BMP280;25735;48.122;11.422;2023-02-15T00:31:06;96532.91;;;0.84
40045;BMP280;25735;48.122;11.422;2023-02-15T00:33:31;96539.41;;;0.93
40045;BMP280;25735;48.122;11.422;2023-02-15T00:35:58;96535.97;;;0.93
40045;BMP280;25735;48.122;11.422;2023-02-15T00:38:23;96538.66;;;0.89
40045;BMP280;25735;48.122;11.422;2023-02-15T00:40:56;96532.53;;;0.99
40045;BMP280;25735;48.122;11.422;2023-02-15T00:43:22;96528.72;;;0.93
40045;BMP280;25735;48.122;11.422;2023-02-15T00:45:47;96522.59;;;0.93
40045;BMP280;25735;48.122;11.422;2023-02-15T00:48:13;96524.88;;;0.81
40045;BMP280;25735;48.122;11.422;2023-02-15T00:50:38;96515.72;;;0.75
40045;BMP280;25735;48.122;11.422;2023-02-15T00:53:04;96511.13;;;0.72
40045;BMP280;25735;48.122;11.422;2023-02-15T00:55:29;96506.94;;;0.84
40045;BMP280;25735;48.122;11.422;2023-02-15T00:57:54;96512.66;;;0.80
40045;BMP280;25735;48.122;11.422;2023-02-15T01:00:19;96502.69;;;0.80
40045;BMP280;25735;48.122;11.422;2023-02-15T01:02:44;96506.13;;;0.77
40045;BMP280;25735;48.122;11.422;2023-02-15T01:05:10;96511.13;;;0.82
40045;BMP280;25735;48.122;11.422;2023-02-15T01:07:35;96497.34;;;0.73
40045;BMP280;25735;48.122;11.422;2023-02-15T01:10:00;96495.84;;;0.86
40045;BMP280;25735;48.122;11.422;2023-02-15T01:12:26;96500.81;;;0.94
40045;BMP280;25735;48.122;11.422;2023-02-15T01:14:51;96495.06;;;0.75
40045;BMP280;25735;48.122;11.422;2023-02-15T01:17:16;96502.69;;;0.80
40045;BMP280;25735;48.122;11.422;2023-02-15T01:19:41;96488.16;;;0.71
40045;BMP280;25735;48.122;11.422;2023-02-15T01:22:07;96492.00;;;0.80
40045;BMP280;25735;48.122;11.422;2023-02-15T01:24:32;96490.09;;;0.81
40045;BMP280;25735;48.122;11.422;2023-02-15T01:26:57;96484.72;;;0.84
40045;BMP280;25735;48.122;11.422;2023-02-15T01:29:22;96487.81;;;0.76
40045;BMP280;25735;48.122;11.422;2023-02-15T01:31:48;96480.53;;;0.66
40045;BMP280;25735;48.122;11.422;2023-02-15T01:34:13;96473.63;;;0.65
40045;BMP280;25735;48.122;11.422;2023-02-15T01:36:38;96479.38;;;0.77
40045;BMP280;25735;48.122;11.422;2023-02-15T01:39:03;96468.31;;;0.85
40045;BMP280;25735;48.122;11.422;2023-02-15T01:41:29;96479.75;;;0.55
40045;BMP280;25735;48.122;11.422;2023-02-15T01:43:59;96480.91;;;0.61
40045;BMP280;25735;48.122;11.422;2023-02-15T01:46:38;96484.72;;;0.74
40045;BMP280;25735;48.122;11.422;2023-02-15T01:49:16;96472.09;;;0.47
40045;BMP280;25735;48.122;11.422;2023-02-15T01:51:45;96464.44;;;0.42
40045;BMP280;25735;48.122;11.422;2023-02-15T01:54:25;96464.84;;;0.51
40045;BMP280;25735;48.122;11.422;2023-02-15T01:57:01;96456.81;;;0.51
40045;BMP280;25735;48.122;11.422;2023-02-15T01:59:27;96466.00;;;0.56
40045;BMP280;25735;48.122;11.422;2023-02-15T02:01:57;96466.00;;;0.39
40045;BMP280;25735;48.122;11.422;2023-02-15T02:04:33;96480.03;;;0.12
40045;BMP280;25735;48.122;11.422;2023-02-15T02:07:00;96466.69;;;0.19
40045;BMP280;25735;48.122;11.422;2023-02-15T02:09:26;96468.97;;;0.10
40045;BMP280;25735;48.122;11.422;2023-02-15T02:11:52;96464.38;;;0.07
40045;BMP280;25735;48.122;11.422;2023-02-15T02:14:19;96459.06;;;0.14
40045;BMP280;25735;48.122;11.422;2023-02-15T02:20:08;96452.22;;;0.51
40045;BMP280;25735;48.122;11.422;2023-02-15T02:22:58;96454.13;;;0.37
40045;BMP280;25735;48.122;11.422;2023-02-15T02:28:43;96463.66;;;0.21
40045;BMP280;25735;48.122;11.422;2023-02-15T02:34:23;96451.03;;;0.25
40045;BMP280;25735;48.122;11.422;2023-02-15T02:37:03;96462.81;;;-0.04
40045;BMP280;25735;48.122;11.422;2023-02-15T02:42:23;96451.38;;;0.06
40045;BMP280;25735;48.122;11.422;2023-02-15T02:45:05;96451.78;;;0.15
40045;BMP280;25735;48.122;11.422;2023-02-15T02:47:44;96445.34;;;0.36
40045;BMP280;25735;48.122;11.422;2023-02-15T02:50:22;96451.34;;;-0.04
40045;BMP280;25735;48.122;11.422;2023-02-15T02:52:52;96457.47;;;-0.04
40045;BMP280;25735;48.122;11.422;2023-02-15T02:55:30;96447.19;;;0.05
40045;BMP280;25735;48.122;11.422;2023-02-15T02:58:26;96451.75;;;-0.06
40045;BMP280;25735;48.122;11.422;2023-02-15T03:01:14;96452.13;;;0.03
40045;BMP280;25735;48.122;11.422;2023-02-15T03:03:53;96446.75;;;-0.14
40045;BMP280;25735;48.122;11.422;2023-02-15T03:06:26;96450.59;;;-0.05
40045;BMP280;25735;48.122;11.422;2023-02-15T03:08:58;96452.13;;;0.06
40045;BMP280;25735;48.122;11.422;2023-02-15T03:11:25;96444.47;;;-0.09
40045;BMP280;25735;48.122;11.422;2023-02-15T03:13:51;96451.38;;;0.02
40045;BMP280;25735;48.122;11.422;2023-02-15T03:16:18;96444.19;;;0.24
40045;BMP280;25735;48.122;11.422;2023-02-15T03:18:54;96439.22;;;0.29
40045;BMP280;25735;48.122;11.422;2023-02-15T03:21:28;96443.34;;;0.06
40045;BMP280;25735;48.122;11.422;2023-02-15T03:24:01;96442.88;;;-0.27
40045;BMP280;25735;48.122;11.422;2023-02-15T03:26:29;96434.53;;;-0.15
40045;BMP280;25735;48.122;11.422;2023-02-15T03:28:56;96439.13;;;-0.16
40045;BMP280;25735;48.122;11.422;2023-02-15T03:31:23;96440.63;;;-0.15
40045;BMP280;25735;48.122;11.422;2023-02-15T03:34:00;96443.34;;;0.02
40045;BMP280;25735;48.122;11.422;2023-02-15T03:36:38;96439.94;;;0.19
40045;BMP280;25735;48.122;11.422;2023-02-15T03:39:20;96445.69;;;0.11
40045;BMP280;25735;48.122;11.422;2023-02-15T03:41:50;96440.69;;;0.02
40045;BMP280;25735;48.122;11.422;2023-02-15T03:44:41;96439.50;;;-0.14
40045;BMP280;25735;48.122;11.422;2023-02-15T03:47:17;96449.06;;;-0.09
40045;BMP280;25735;48.122;11.422;2023-02-15T03:49:50;96444.09;;;-0.04
40045;BMP280;25735;48.122;11.422;2023-02-15T03:52:17;96439.41;;;-0.34
40045;BMP280;25735;48.122;11.422;2023-02-15T03:54:44;96439.78;;;-0.36
40045;BMP280;25735;48.122;11.422;2023-02-15T03:57:28;96447.06;;;-0.26
40045;BMP280;25735;48.122;11.422;2023-02-15T04:03:11;96449.44;;;-0.04
40045;BMP280;25735;48.122;11.422;2023-02-15T04:05:38;96439.16;;;-0.02
40045;BMP280;25735;48.122;11.422;2023-02-15T04:08:03;96442.25;;;0.10
40045;BMP280;25735;48.122;11.422;2023-02-15T04:10:29;96442.59;;;0.02
40045;BMP280;25735;48.122;11.422;2023-02-15T04:13:13;96437.25;;;0.05
40045;BMP280;25735;48.122;11.422;2023-02-15T04:15:38;96455.19;;;0.05
40045;BMP280;25735;48.122;11.422;2023-02-15T04:18:22;96454.38;;;-0.16
40045;BMP280;25735;48.122;11.422;2023-02-15T04:21:07;96451.28;;;-0.28
40045;BMP280;25735;48.122;11.422;2023-02-15T04:23:51;96446.00;;;-0.08
40045;BMP280;25735;48.122;11.422;2023-02-15T04:26:34;96449.06;;;-0.13
40045;BMP280;25735;48.122;11.422;2023-02-15T04:29:00;96456.69;;;-0.08
40045;BMP280;25735;48.122;11.422;2023-02-15T04:31:25;96447.47;;;-0.21
40045;BMP280;25735;48.122;11.422;2023-02-15T04:33:50;96449.38;;;-0.25
40045;BMP280;25735;48.122;11.422;2023-02-15T04:36:15;96455.09;;;-0.26
40045;BMP280;25735;48.122;11.422;2023-02-15T04:38:41;96454.28;;;-0.37
40045;BMP280;25735;48.122;11.422;2023-02-15T04:41:06;96443.66;;;-0.20
40045;BMP280;25735;48.122;11.422;2023-02-15T04:43:31;96451.31;;;-0.22
40045;BMP280;25735;48.122;11.422;2023-02-15T04:45:56;96445.53;;;-0.30
40045;BMP280;25735;48.122;11.422;2023-02-15T04:48:23;96445.19;;;-0.26
40045;BMP280;25735;48.122;11.422;2023-02-15T04:50:49;96432.25;;;-0.10
40045;BMP280;25735;48.122;11.422;2023-02-15T04:53:14;96448.69;;;-0.04
40045;BMP280;25735;48.122;11.422;2023-02-15T04:55:41;96436.78;;;-0.24
40045;BMP280;25735;48.122;11.422;2023-02-15T04:58:06;96455.06;;;-0.29
40045;BMP280;25735;48.122;11.422;2023-02-15T05:00:32;96458.13;;;-0.31
40045;BMP280;25735;48.122;11.422;2023-02-15T05:02:57;96453.25;;;-0.85
40045;BMP280;25735;48.122;11.422;2023-02-15T05:05:22;96444.53;;;-0.79
40045;BMP280;25735;48.122;11.422;2023-02-15T05:07:47;96447.25;;;-0.69
40045;BMP280;25735;48.122;11.422;2023-02-15T05:10:13;96445.03;;;-0.60
40045;BMP280;25735;48.122;11.422;2023-02-15T05:12:38;96435.53;;;-0.51
40045;BMP280;25735;48.122;11.422;2023-02-15T05:15:03;96452.31;;;-0.50
40045;BMP280;25735;48.122;11.422;2023-02-15T05:17:29;96439.41;;;-0.34
40045;BMP280;25735;48.122;11.422;2023-02-15T05:19:54;96451.28;;;-0.28
40045;BMP280;25735;48.122;11.422;2023-02-15T05:22:19;96447.78;;;-0.39
40045;BMP280;25735;48.122;11.422;2023-02-15T05:24:44;96442.31;;;-0.70
40045;BMP280;25735;48.122;11.422;2023-02-15T05:27:28;96447.25;;;-0.69
40045;BMP280;25735;48.122;11.422;2023-02-15T05:30:13;96442.09;;;-0.34
40045;BMP280;25735;48.122;11.422;2023-02-15T05:32:39;96443.63;;;-0.33
40045;BMP280;25735;48.122;11.422;2023-02-15T05:35:05;96445.19;;;-0.26
40045;BMP280;25735;48.122;11.422;2023-02-15T05:37:30;96448.50;;;-0.46
40045;BMP280;25735;48.122;11.422;2023-02-15T05:39:56;96449.56;;;-0.71
40045;BMP280;25735;48.122;11.422;2023-02-15T05:42:21;96457.13;;;-0.76
40045;BMP280;25735;48.122;11.422;2023-02-15T05:44:46;96459.53;;;-1.14
40045;BMP280;25735;48.122;11.422;2023-02-15T05:47:11;96461.34;;;-1.28
40045;BMP280;25735;48.122;11.422;2023-02-15T05:49:36;96473.25;;;-1.19
40045;BMP280;25735;48.122;11.422;2023-02-15T05:52:02;96468.41;;;-1.03
40045;BMP280;25735;48.122;11.422;2023-02-15T05:54:28;96464.13;;;-1.11
40045;BMP280;25735;48.122;11.422;2023-02-15T05:56:53;96472.31;;;-0.90
40045;BMP280;25735;48.122;11.422;2023-02-15T05:59:18;96465.03;;;-0.93
40045;BMP280;25735;48.122;11.422;2023-02-15T06:01:44;96470.72;;;-0.98
40045;BMP280;25735;48.122;11.422;2023-02-15T06:04:09;96458.78;;;-0.58
40045;BMP280;25735;48.122;11.422;2023-02-15T06:06:34;96472.25;;;-0.30
40045;BMP280;25735;48.122;11.422;2023-02-15T06:09:00;96471.09;;;-0.33
40045;BMP280;25735;48.122;11.422;2023-02-15T06:11:26;96469.53;;;-0.41
40045;BMP280;25735;48.122;11.422;2023-02-15T06:13:51;96471.78;;;-0.46
40045;BMP280;25735;48.122;11.422;2023-02-15T06:16:16;96461.81;;;-0.59
40045;BMP280;25735;48.122;11.422;2023-02-15T06:18:41;96476.34;;;-0.50
40045;BMP280;25735;48.122;11.422;2023-02-15T06:21:07;96466.31;;;-0.74
40045;BMP280;25735;48.122;11.422;2023-02-15T06:23:33;96481.56;;;-1.24
40045;BMP280;25735;48.122;11.422;2023-02-15T06:25:58;96466.56;;;-0.92
40045;BMP280;25735;48.122;11.422;2023-02-15T06:28:23;96469.94;;;-1.02
40045;BMP280;25735;48.122;11.422;2023-02-15T06:30:50;96467.34;;;-0.88
40045;BMP280;25735;48.122;11.422;2023-02-15T06:33:15;96474.53;;;-0.99
40045;BMP280;25735;48.122;11.422;2023-02-15T06:35:41;96481.34;;;-1.05
40045;BMP280;25735;48.122;11.422;2023-02-15T06:38:06;96487.47;;;-1.01
40045;BMP280;25735;48.122;11.422;2023-02-15T06:40:31;96480.31;;;-0.90
40045;BMP280;25735;48.122;11.422;2023-02-15T06:42:56;96479.16;;;-0.89
40045;BMP280;25735;48.122;11.422;2023-02-15T06:45:22;96484.53;;;-0.83
40045;BMP280;25735;48.122;11.422;2023-02-15T06:47:47;96484.13;;;-0.85
40045;BMP280;25735;48.122;11.422;2023-02-15T06:50:12;96485.16;;;-1.06
40045;BMP280;25735;48.122;11.422;2023-02-15T06:52:37;96479.97;;;-0.82
40045;BMP280;25735;48.122;11.422;2023-02-15T06:55:03;96485.53;;;-0.44
40045;BMP280;25735;48.122;11.422;2023-02-15T06:57:28;96482.06;;;-0.55
40045;BMP280;25735;48.122;11.422;2023-02-15T06:59:53;96483.34;;;-0.28
40045;BMP280;25735;48.122;11.422;2023-02-15T07:02:19;96487.91;;;-0.32
40045;BMP280;25735;48.122;11.422;2023-02-15T07:04:44;96486.66;;;-0.49
40045;BMP280;25735;48.122;11.422;2023-02-15T07:07:11;96486.59;;;-0.56
40045;BMP280;25735;48.122;11.422;2023-02-15T07:09:36;96490.13;;;-0.45
40045;BMP280;25735;48.122;11.422;2023-02-15T07:12:02;96480.22;;;-0.41
40045;BMP280;25735;48.122;11.422;2023-02-15T07:14:46;96481.03;;;-0.27
40045;BMP280;25735;48.122;11.422;2023-02-15T07:17:11;96486.75;;;-0.35
40045;BMP280;25735;48.122;11.422;2023-02-15T07:19:36;96480.28;;;-0.24
40045;BMP280;25735;48.122;11.422;2023-02-15T07:22:02;96484.91;;;-0.10
40045;BMP280;25735;48.122;11.422;2023-02-15T07:24:28;96491.66;;;-0.40
40045;BMP280;25735;48.122;11.422;2023-02-15T07:26:54;96484.50;;;-0.23
40045;BMP280;25735;48.122;11.422;2023-02-15T07:29:19;96485.25;;;-0.29
40045;BMP280;25735;48.122;11.422;2023-02-15T07:31:44;96494.22;;;-0.61
40045;BMP280;25735;48.122;11.422;2023-02-15T07:34:10;96495.38;;;-0.58
40045;BMP280;25735;48.122;11.422;2023-02-15T07:36:35;96490.72;;;-0.68
40045;BMP280;25735;48.122;11.422;2023-02-15T07:39:01;96492.81;;;-0.38
40045;BMP280;25735;48.122;11.422;2023-02-15T07:41:26;96487.09;;;-0.40
40045;BMP280;25735;48.122;11.422;2023-02-15T07:43:51;96482.94;;;-0.30
40045;BMP280;25735;48.122;11.422;2023-02-15T07:46:17;96483.44;;;0.02
40045;BMP280;25735;48.122;11.422;2023-02-15T07:48:43;96465.03;;;-0.20
40045;BMP280;25735;48.122;11.422;2023-02-15T07:51:10;96465.38;;;-0.31
40045;BMP280;25735;48.122;11.422;2023-02-15T07:53:36;96469.09;;;-0.50
40045;BMP280;25735;48.122;11.422;2023-02-15T07:56:03;96468.03;;;-0.38
40045;BMP280;25735;48.122;11.422;2023-02-15T07:58:29;96468.00;;;-0.45
40045;BMP280;25735;48.122;11.422;2023-02-15T08:01:14;96466.53;;;-0.29
40045;BMP280;25735;48.122;11.422;2023-02-15T08:03:39;96462.34;;;-0.27
40045;BMP280;25735;48.122;11.422;2023-02-15T08:06:05;96464.22;;;-0.34
40045;BMP280;25735;48.122;11.422;2023-02-15T08:08:30;96468.09;;;-0.18
40045;BMP280;25735;48.122;11.422;2023-02-15T08:13:57;96477.31;;;-0.05
40045;BMP280;25735;48.122;11.422;2023-02-15T08:19:15;96472.75;;;0.02
40045;BMP280;25735;48.122;11.422;2023-02-15T08:21:42;96455.19;;;0.05
40045;BMP280;25735;48.122;11.422;2023-02-15T08:24:09;96462.16;;;0.40
40045;BMP280;25735;48.122;11.422;2023-02-15T08:26:35;96465.94;;;0.26
40045;BMP280;25735;48.122;11.422;2023-02-15T08:29:01;96460.66;;;0.77
40045;BMP280;25735;48.122;11.422;2023-02-15T08:31:27;96462.19;;;0.99
40045;BMP280;25735;48.122;11.422;2023-02-15T08:33:55;96457.94;;;1.22
40045;BMP280;25735;48.122;11.422;2023-02-15T08:36:22;96462.19;;;0.95
40045;BMP280;25735;48.122;11.422;2023-02-15T08:38:48;96461.81;;;0.90
40045;BMP280;25735;48.122;11.422;2023-02-15T08:41:22;96459.53;;;0.78
40045;BMP280;25735;48.122;11.422;2023-02-15T08:43:51;96463.59;;;1.58
40045;BMP280;25735;48.122;11.422;2023-02-15T08:46:17;96452.19;;;1.40
40045;BMP280;25735;48.122;11.422;2023-02-15T08:48:43;96459.47;;;1.16
40045;BMP280;25735;48.122;11.422;2023-02-15T08:51:20;96461.38;;;1.33
40045;BMP280;25735;48.122;11.422;2023-02-15T08:53:48;96462.09;;;1.54
40045;BMP280;25735;48.122;11.422;2023-02-15T08:56:14;96461.31;;;1.60
40045;BMP280;25735;48.122;11.422;2023-02-15T08:58:40;96460.13;;;1.68
40045;BMP280;25735;48.122;11.422;2023-02-15T09:01:13;96461.25;;;1.74
40045;BMP280;25735;48.122;11.422;2023-02-15T09:03:39;96459.78;;;1.49
40045;BMP280;25735;48.122;11.422;2023-02-15T09:06:05;96453.66;;;1.52
40045;BMP280;25735;48.122;11.422;2023-02-15T09:08:31;96460.34;;;2.04
40045;BMP280;25735;48.122;11.422;2023-02-15T09:11:08;96459.19;;;2.09
40045;BMP280;25735;48.122;11.422;2023-02-15T09:13:34;96461.06;;;2.22
40045;BMP280;25735;48.122;11.422;2023-02-15T09:16:03;96459.41;;;2.42
40045;BMP280;25735;48.122;11.422;2023-02-15T09:18:30;96458.72;;;2.31
40045;BMP280;25735;48.122;11.422;2023-02-15T09:20:56;96441.09;;;2.23
40045;BMP280;25735;48.122;11.422;2023-02-15T09:23:21;96452.22;;;2.25
40045;BMP280;25735;48.122;11.422;2023-02-15T09:25:47;96449.28;;;2.66
40045;BMP280;25735;48.122;11.422;2023-02-15T09:28:12;96448.28;;;2.93
40045;BMP280;25735;48.122;11.422;2023-02-15T09:30:37;96445.94;;;2.49
40045;BMP280;25735;48.122;11.422;2023-02-15T09:33:03;96441.19;;;2.73
40045;BMP280;25735;48.122;11.422;2023-02-15T09:35:28;96442.22;;;2.86
40045;BMP280;25735;48.122;11.422;2023-02-15T09:37:53;96441.19;;;2.70
40045;BMP280;25735;48.122;11.422;2023-02-15T09:40:18;96444.41;;;2.98
40045;BMP280;25735;48.122;11.422;2023-02-15T09:45:39;96440.97;;;3.37
40045;BMP280;25735;48.122;11.422;2023-02-15T09:48:23;96442.13;;;3.72
40045;BMP280;25735;48.122;11.422;2023-02-15T09:51:09;96450.69;;;3.97
40045;BMP280;25735;48.122;11.422;2023-02-15T09:53:54;96444.50;;;4.00
40045;BMP280;25735;48.122;11.422;2023-02-15T09:56:44;96440.22;;;4.02
40045;BMP280;25735;48.122;11.422;2023-02-15T09:59:24;96451.59;;;4.17
40045;BMP280;25735;48.122;11.422;2023-02-15T10:04:42;96436.97;;;4.18
40045;BMP280;25735;48.122;11.422;2023-02-15T10:13:00;96446.50;;;4.77
40045;BMP280;25735;48.122;11.422;2023-02-15T10:15:47;96439.13;;;4.81
40045;BMP280;25735;48.122;11.422;2023-02-15T10:18:26;96444.16;;;5.02
40045;BMP280;25735;48.122;11.422;2023-02-15T10:21:13;96440.00;;;5.20
40045;BMP280;25735;48.122;11.422;2023-02-15T10:26:47;96434.19;;;5.22
40045;BMP280;25735;48.122;11.422;2023-02-15T10:34:37;96437.66;;;5.87
40045;BMP280;25735;48.122;11.422;2023-02-15T10:37:25;96430.50;;;6.15
40045;BMP280;25735;48.122;11.422;2023-02-15T10:40:31;96424.50;;;6.27
40045;BMP280;25735;48.122;11.422;2023-02-15T10:59:34;96398.00;;;7.48
40045;BMP280;25735;48.122;11.422;2023-02-15T11:07:07;96383.41;;;7.73
40045;BMP280;25735;48.122;11.422;2023-02-15T11:09:38;96372.31;;;7.40
40045;BMP280;25735;48.122;11.422;2023-02-15T11:12:11;96379.09;;;7.76
40045;BMP280;25735;48.122;11.422;2023-02-15T11:14:50;96366.31;;;8.16
40045;BMP280;25735;48.122;11.422;2023-02-15T11:17:26;96371.78;;;8.41
40045;BMP280;25735;48.122;11.422;2023-02-15T11:22:32;96365.06;;;8.45
40045;BMP280;25735;48.122;11.422;2023-02-15T11:24:58;96360.38;;;8.46
40045;BMP280;25735;48.122;11.422;2023-02-15T11:27:30;96353.31;;;8.85
40045;BMP280;25735;48.122;11.422;2023-02-15T11:30:09;96351.72;;;8.75
40045;BMP280;25735;48.122;11.422;2023-02-15T11:32:39;96329.91;;;9.25
40045;BMP280;25735;48.122;11.422;2023-02-15T11:37:48;96326.28;;;9.40
40045;BMP280;25735;48.122;11.422;2023-02-15T11:40:25;96326.25;;;9.52
40045;BMP280;25735;48.122;11.422;2023-02-15T11:42:55;96324.19;;;9.77
40045;BMP280;25735;48.122;11.422;2023-02-15T11:45:28;96329.31;;;10.26
40045;BMP280;25735;48.122;11.422;2023-02-15T11:47:54;96314.81;;;9.99
40045;BMP280;25735;48.122;11.422;2023-02-15T11:50:23;96310.88;;;9.91
40045;BMP280;25735;48.122;11.422;2023-02-15T11:52:52;96306.00;;;10.46
40045;BMP280;25735;48.122;11.422;2023-02-15T11:55:20;96304.97;;;10.53
40045;BMP280;25735;48.122;11.422;2023-02-15T11:57:53;96299.69;;;11.32
40045;BMP280;25735;48.122;11.422;2023-02-15T12:00:43;96297.47;;;11.40
40045;BMP280;25735;48.122;11.422;2023-02-15T12:03:15;96301.75;;;10.84
40045;BMP280;25735;48.122;11.422;2023-02-15T12:05:45;96283.09;;;11.30
40045;BMP280;25735;48.122;11.422;2023-02-15T12:08:19;96286.25;;;11.73
40045;BMP280;25735;48.122;11.422;2023-02-15T12:11:12;96277.81;;;12.62
40045;BMP280;25735;48.122;11.422;2023-02-15T12:14:02;96266.94;;;13.54
40045;BMP280;25735;48.122;11.422;2023-02-15T12:16:29;96271.31;;;13.37
40045;BMP280;25735;48.122;11.422;2023-02-15T12:18:58;96264.38;;;14.02
40045;BMP280;25735;48.122;11.422;2023-02-15T12:21:30;96266.25;;;13.96
40045;BMP280;25735;48.122;11.422;2023-02-15T12:24:18;96264.09;;;14.63
40045;BMP280;25735;48.122;11.422;2023-02-15T12:26:56;96258.59;;;15.30
40045;BMP280;25735;48.122;11.422;2023-02-15T12:29:25;96247.13;;;14.59
40045;BMP280;25735;48.122;11.422;2023-02-15T12:31:52;96249.97;;;14.64
40045;BMP280;25735;48.122;11.422;2023-02-15T12:34:22;96233.84;;;14.86
40045;BMP280;25735;48.122;11.422;2023-02-15T12:36:50;96241.00;;;15.37
40045;BMP280;25735;48.122;11.422;2023-02-15T12:39:24;96242.25;;;15.36
40045;BMP280;25735;48.122;11.422;2023-02-15T12:44:22;96229.59;;;15.63
40045;BMP280;25735;48.122;11.422;2023-02-15T12:49:37;96233.97;;;15.75
40045;BMP280;25735;48.122;11.422;2023-02-15T12:52:23;96225.69;;;15.70
40045;BMP280;25735;48.122;11.422;2023-02-15T12:54:49;96222.06;;;16.34
40045;BMP280;25735;48.122;11.422;2023-02-15T13:00:26;96219.44;;;16.19
40045;BMP280;25735;48.122;11.422;2023-02-15T13:02:46;96215.47;;;15.45
40045;BMP280;25735;48.122;11.422;2023-02-15T13:05:19;96231.84;;;15.20
40045;BMP280;25735;48.122;11.422;2023-02-15T13:07:51;96207.00;;;15.68
40045;BMP280;25735;48.122;11.422;2023-02-15T13:10:22;96203.81;;;16.00
40045;BMP280;25735;48.122;11.422;2023-02-15T13:12:49;96204.59;;;16.31
40045;BMP280;25735;48.122;11.422;2023-02-15T13:15:36;96200.84;;;16.29
40045;BMP280;25735;48.122;11.422;2023-02-15T13:18:03;96200.72;;;16.43
40045;BMP280;25735;48.122;11.422;2023-02-15T13:20:29;96197.13;;;16.06
40045;BMP280;25735;48.122;11.422;2023-02-15T13:23:01;96192.94;;;17.29
40045;BMP280;25735;48.122;11.422;2023-02-15T13:25:44;96206.44;;;16.45
40045;BMP280;25735;48.122;11.422;2023-02-15T13:28:14;96189.94;;;16.75
40045;BMP280;25735;48.122;11.422;2023-02-15T13:30:43;96190.81;;;16.20
40045;BMP280;25735;48.122;11.422;2023-02-15T13:33:32;96178.53;;;17.50
40045;BMP280;25735;48.122;11.422;2023-02-15T13:36:05;96180.63;;;17.99
40045;BMP280;25735;48.122;11.422;2023-02-15T13:41:19;96181.38;;;17.09
40045;BMP280;25735;48.122;11.422;2023-02-15T13:43:54;96184.75;;;17.46
40045;BMP280;25735;48.122;11.422;2023-02-15T13:46:35;96178.59;;;17.88
40045;BMP280;25735;48.122;11.422;2023-02-15T13:49:06;96178.00;;;17.36
40045;BMP280;25735;48.122;11.422;2023-02-15T13:56:53;96184.94;;;17.26
40045;BMP280;25735;48.122;11.422;2023-02-15T14:10:48;96187.53;;;15.91
40045;BMP280;25735;48.122;11.422;2023-02-15T14:18:49;96171.97;;;15.77
40045;BMP280;25735;48.122;11.422;2023-02-15T14:24:33;96177.75;;;14.76
40045;BMP280;25735;48.122;11.422;2023-02-15T14:27:26;96181.31;;;14.62
40045;BMP280;25735;48.122;11.422;2023-02-15T14:30:00;96172.69;;;13.58
40045;BMP280;25735;48.122;11.422;2023-02-15T14:32:36;96181.16;;;14.03
40045;BMP280;25735;48.122;11.422;2023-02-15T14:35:05;96179.19;;;13.61
40045;BMP280;25735;48.122;11.422;2023-02-15T14:43:49;96165.53;;;14.37
40045;BMP280;25735;48.122;11.422;2023-02-15T14:49:12;96176.94;;;13.74
40045;BMP280;25735;48.122;11.422;2023-02-15T15:02:12;96173.91;;;14.00
40045;BMP280;25735;48.122;11.422;2023-02-15T15:04:42;96173.44;;;13.59
40045;BMP280;25735;48.122;11.422;2023-02-15T15:07:17;96177.94;;;13.62
40045;BMP280;25735;48.122;11.422;2023-02-15T15:09:46;96173.44;;;13.87
40045;BMP280;25735;48.122;11.422;2023-02-15T15:14:45;96170.31;;;13.80
40045;BMP280;25735;48.122;11.422;2023-02-15T15:19:58;96177.88;;;14.67
40045;BMP280;25735;48.122;11.422;2023-02-15T15:22:26;96171.38;;;14.45
40045;BMP280;25735;48.122;11.422;2023-02-15T15:24:54;96178.81;;;13.96
40045;BMP280;25735;48.122;11.422;2023-02-15T15:27:52;96190.25;;;12.37
40045;BMP280;25735;48.122;11.422;2023-02-15T15:32:54;96187.06;;;12.06
40045;BMP280;25735;48.122;11.422;2023-02-15T15:35:37;96195.25;;;11.56
40045;BMP280;25735;48.122;11.422;2023-02-15T15:48:44;96189.63;;;9.67
40045;BMP280;25735;48.122;11.422;2023-02-15T15:51:24;96194.44;;;9.42
40045;BMP280;25735;48.122;11.422;2023-02-15T15:53:52;96170.53;;;9.80
40045;BMP280;25735;48.122;11.422;2023-02-15T15:56:24;96187.63;;;9.38
40045;BMP280;25735;48.122;11.422;2023-02-15T15:58:56;96180.81;;;8.91
40045;BMP280;25735;48.122;11.422;2023-02-15T16:01:28;96189.69;;;9.25
40045;BMP280;25735;48.122;11.422;2023-02-15T16:03:55;96190.16;;;9.11
40045;BMP280;25735;48.122;11.422;2023-02-15T16:06:36;96194.97;;;8.41
40045;BMP280;25735;48.122;11.422;2023-02-15T16:09:24;96207.34;;;7.92
40045;BMP280;25735;48.122;11.422;2023-02-15T16:11:55;96218.41;;;7.33
40045;BMP280;25735;48.122;11.422;2023-02-15T16:14:30;96221.56;;;7.31
40045;BMP280;25735;48.122;11.422;2023-02-15T16:17:01;96224.38;;;7.00
40045;BMP280;25735;48.122;11.422;2023-02-15T16:19:30;96212.38;;;6.73
40045;BMP280;25735;48.122;11.422;2023-02-15T16:21:59;96222.34;;;6.60
40045;BMP280;25735;48.122;11.422;2023-02-15T16:24:38;96222.28;;;6.48
40045;BMP280;25735;48.122;11.422;2023-02-15T16:29:50;96241.97;;;6.17
40045;BMP280;25735;48.122;11.422;2023-02-15T16:32:21;96241.69;;;6.12
40045;BMP280;25735;48.122;11.422;2023-02-15T16:34:57;96241.09;;;5.69
40045;BMP280;25735;48.122;11.422;2023-02-15T16:37:36;96239.94;;;5.70
40045;BMP280;25735;48.122;11.422;2023-02-15T16:40:02;96238.50;;;5.47
40045;BMP280;25735;48.122;11.422;2023-02-15T16:42:27;96242.81;;;5.25
40045;BMP280;25735;48.122;11.422;2023-02-15T16:45:16;96249.00;;;5.41